Terminal Aerodrome Forecast
Issued by NWS Sioux Falls, SD

Home | Current Version | Previous Version | Graphics & Text | Print | Product List | Glossary On
Versions: 1 2 3 4 5 6 7 8 9 10 11 12 13 14
000
FTUS43 KFSD 252323
TAFHON
TAF
KHON 252323Z 2600/2624 36014G20KT P6SM BKN015 BKN070
     FM260100 34013KT P6SM SCT020 BKN050
     FM260700 34010KT P6SM SCT020
     FM261800 34010KT P6SM SCT025=

USA.gov is the U.S. government's official web portal to all federal, state and local government web resources and services.